sensor_id;sensor_type;location;lat;lon;timestamp;P1;durP1;ratioP1;P2;durP2;ratioP2
23470;SDS011;11908;50.806;4.424;2023-07-09T00:01:21;12.82;;;5.05;;
23470;SDS011;11908;50.806;4.424;2023-07-09T00:03:46;7.22;;;4.68;;
23470;SDS011;11908;50.806;4.424;2023-07-09T00:06:16;7.20;;;4.78;;
23470;SDS011;11908;50.806;4.424;2023-07-09T00:08:43;8.32;;;4.90;;
23470;SDS011;11908;50.806;4.424;2023-07-09T00:11:11;12.27;;;5.40;;
23470;SDS011;11908;50.806;4.424;2023-07-09T00:13:37;9.95;;;5.50;;
23470;SDS011;11908;50.806;4.424;2023-07-09T00:16:03;8.52;;;4.85;;
23470;SDS011;11908;50.806;4.424;2023-07-09T00:18:37;8.52;;;4.75;;
23470;SDS011;11908;50.806;4.424;2023-07-09T00:21:04;8.65;;;4.70;;
23470;SDS011;11908;50.806;4.424;2023-07-09T00:23:30;10.23;;;4.95;;
23470;SDS011;11908;50.806;4.424;2023-07-09T00:25:56;8.40;;;4.60;;
23470;SDS011;11908;50.806;4.424;2023-07-09T00:28:22;7.32;;;5.00;;
23470;SDS011;11908;50.806;4.424;2023-07-09T00:30:48;7.43;;;5.20;;
23470;SDS011;11908;50.806;4.424;2023-07-09T00:33:15;7.47;;;5.30;;
23470;SDS011;11908;50.806;4.424;2023-07-09T00:35:44;9.48;;;4.65;;
23470;SDS011;11908;50.806;4.424;2023-07-09T00:38:14;7.75;;;4.80;;
23470;SDS011;11908;50.806;4.424;2023-07-09T00:40:48;5.47;;;4.32;;
23470;SDS011;11908;50.806;4.424;2023-07-09T00:43:30;9.50;;;5.43;;
23470;SDS011;11908;50.806;4.424;2023-07-09T00:51:36;8.23;;;5.00;;
23470;SDS011;11908;50.806;4.424;2023-07-09T00:54:16;7.03;;;5.00;;
23470;SDS011;11908;50.806;4.424;2023-07-09T00:56:48;9.82;;;5.05;;
23470;SDS011;11908;50.806;4.424;2023-07-09T00:59:18;8.68;;;4.72;;
23470;SDS011;11908;50.806;4.424;2023-07-09T01:01:46;7.57;;;5.40;;
23470;SDS011;11908;50.806;4.424;2023-07-09T01:04:15;7.95;;;5.15;;
23470;SDS011;11908;50.806;4.424;2023-07-09T01:06:45;7.40;;;5.00;;
23470;SDS011;11908;50.806;4.424;2023-07-09T01:09:13;9.77;;;5.28;;
23470;SDS011;11908;50.806;4.424;2023-07-09T01:11:40;6.47;;;4.60;;
23470;SDS011;11908;50.806;4.424;2023-07-09T01:14:07;9.82;;;5.15;;
23470;SDS011;11908;50.806;4.424;2023-07-09T01:16:36;9.20;;;4.93;;
23470;SDS011;11908;50.806;4.424;2023-07-09T01:19:04;8.95;;;4.53;;
23470;SDS011;11908;50.806;4.424;2023-07-09T01:21:30;11.68;;;5.03;;
23470;SDS011;11908;50.806;4.424;2023-07-09T01:23:57;7.70;;;4.75;;
23470;SDS011;11908;50.806;4.424;2023-07-09T01:26:24;10.48;;;5.07;;
23470;SDS011;11908;50.806;4.424;2023-07-09T01:28:52;9.30;;;5.20;;
23470;SDS011;11908;50.806;4.424;2023-07-09T01:31:18;8.90;;;5.10;;
23470;SDS011;11908;50.806;4.424;2023-07-09T01:33:45;9.77;;;5.05;;
23470;SDS011;11908;50.806;4.424;2023-07-09T01:36:19;8.93;;;5.40;;
23470;SDS011;11908;50.806;4.424;2023-07-09T01:38:48;7.53;;;5.45;;
23470;SDS011;11908;50.806;4.424;2023-07-09T01:41:16;9.40;;;5.05;;
23470;SDS011;11908;50.806;4.424;2023-07-09T01:43:42;6.93;;;4.95;;
23470;SDS011;11908;50.806;4.424;2023-07-09T01:46:09;9.60;;;4.90;;
23470;SDS011;11908;50.806;4.424;2023-07-09T01:48:37;6.63;;;5.22;;
23470;SDS011;11908;50.806;4.424;2023-07-09T01:51:09;9.18;;;5.45;;
23470;SDS011;11908;50.806;4.424;2023-07-09T01:53:38;7.75;;;5.78;;
23470;SDS011;11908;50.806;4.424;2023-07-09T01:56:05;10.88;;;5.75;;
23470;SDS011;11908;50.806;4.424;2023-07-09T01:58:34;8.63;;;5.47;;
23470;SDS011;11908;50.806;4.424;2023-07-09T02:00:59;7.63;;;5.25;;
23470;SDS011;11908;50.806;4.424;2023-07-09T02:03:25;9.20;;;5.60;;
23470;SDS011;11908;50.806;4.424;2023-07-09T02:05:54;6.88;;;5.15;;
23470;SDS011;11908;50.806;4.424;2023-07-09T02:08:20;7.80;;;5.00;;
23470;SDS011;11908;50.806;4.424;2023-07-09T02:10:49;8.40;;;5.57;;
23470;SDS011;11908;50.806;4.424;2023-07-09T02:13:15;8.02;;;4.85;;
23470;SDS011;11908;50.806;4.424;2023-07-09T02:15:42;9.10;;;5.30;;
23470;SDS011;11908;50.806;4.424;2023-07-09T02:18:08;9.05;;;5.53;;
23470;SDS011;11908;50.806;4.424;2023-07-09T02:20:38;7.00;;;5.60;;
23470;SDS011;11908;50.806;4.424;2023-07-09T02:23:04;6.35;;;5.63;;
23470;SDS011;11908;50.806;4.424;2023-07-09T02:25:31;6.38;;;5.38;;
23470;SDS011;11908;50.806;4.424;2023-07-09T02:27:57;9.80;;;5.40;;
23470;SDS011;11908;50.806;4.424;2023-07-09T02:30:23;10.55;;;5.50;;
23470;SDS011;11908;50.806;4.424;2023-07-09T02:32:48;9.80;;;5.10;;
23470;SDS011;11908;50.806;4.424;2023-07-09T02:35:14;10.48;;;6.13;;
23470;SDS011;11908;50.806;4.424;2023-07-09T02:37:40;9.52;;;5.63;;
23470;SDS011;11908;50.806;4.424;2023-07-09T02:40:07;9.43;;;5.28;;
23470;SDS011;11908;50.806;4.424;2023-07-09T02:42:34;9.63;;;6.00;;
23470;SDS011;11908;50.806;4.424;2023-07-09T02:44:59;11.73;;;5.70;;
23470;SDS011;11908;50.806;4.424;2023-07-09T02:47:25;11.77;;;5.95;;
23470;SDS011;11908;50.806;4.424;2023-07-09T02:49:51;7.97;;;5.35;;
23470;SDS011;11908;50.806;4.424;2023-07-09T02:52:17;7.75;;;5.47;;
23470;SDS011;11908;50.806;4.424;2023-07-09T02:54:42;8.48;;;5.65;;
23470;SDS011;11908;50.806;4.424;2023-07-09T02:57:08;13.85;;;5.93;;
23470;SDS011;11908;50.806;4.424;2023-07-09T02:59:34;10.35;;;5.50;;
23470;SDS011;11908;50.806;4.424;2023-07-09T03:01:59;7.95;;;5.53;;
23470;SDS011;11908;50.806;4.424;2023-07-09T03:04:26;9.82;;;5.80;;
23470;SDS011;11908;50.806;4.424;2023-07-09T03:06:52;10.35;;;5.15;;
23470;SDS011;11908;50.806;4.424;2023-07-09T03:09:18;12.05;;;5.60;;
23470;SDS011;11908;50.806;4.424;2023-07-09T03:11:44;10.73;;;5.15;;
23470;SDS011;11908;50.806;4.424;2023-07-09T03:14:09;8.63;;;5.03;;
23470;SDS011;11908;50.806;4.424;2023-07-09T03:16:35;7.20;;;5.40;;
23470;SDS011;11908;50.806;4.424;2023-07-09T03:19:01;13.10;;;5.13;;
23470;SDS011;11908;50.806;4.424;2023-07-09T03:21:29;10.48;;;4.75;;
23470;SDS011;11908;50.806;4.424;2023-07-09T03:23:55;7.95;;;4.95;;
23470;SDS011;11908;50.806;4.424;2023-07-09T03:26:21;9.25;;;5.38;;
23470;SDS011;11908;50.806;4.424;2023-07-09T03:28:47;13.60;;;4.97;;
23470;SDS011;11908;50.806;4.424;2023-07-09T03:31:13;10.50;;;5.18;;
23470;SDS011;11908;50.806;4.424;2023-07-09T03:33:39;9.82;;;4.60;;
23470;SDS011;11908;50.806;4.424;2023-07-09T03:36:05;7.78;;;5.00;;
23470;SDS011;11908;50.806;4.424;2023-07-09T03:38:31;7.35;;;5.18;;
23470;SDS011;11908;50.806;4.424;2023-07-09T03:40:57;7.57;;;4.97;;
23470;SDS011;11908;50.806;4.424;2023-07-09T03:43:23;7.47;;;5.10;;
23470;SDS011;11908;50.806;4.424;2023-07-09T03:45:49;12.68;;;4.75;;
23470;SDS011;11908;50.806;4.424;2023-07-09T03:48:16;9.93;;;4.55;;
23470;SDS011;11908;50.806;4.424;2023-07-09T03:50:44;6.63;;;4.90;;
23470;SDS011;11908;50.806;4.424;2023-07-09T03:53:10;9.82;;;4.75;;
23470;SDS011;11908;50.806;4.424;2023-07-09T03:55:36;7.38;;;4.57;;
23470;SDS011;11908;50.806;4.424;2023-07-09T03:58:02;7.90;;;4.82;;
23470;SDS011;11908;50.806;4.424;2023-07-09T04:00:29;8.20;;;4.55;;
23470;SDS011;11908;50.806;4.424;2023-07-09T04:02:55;6.95;;;4.20;;
23470;SDS011;11908;50.806;4.424;2023-07-09T04:05:24;9.75;;;4.47;;
23470;SDS011;11908;50.806;4.424;2023-07-09T04:07:50;11.05;;;4.63;;
23470;SDS011;11908;50.806;4.424;2023-07-09T04:10:16;16.40;;;5.07;;
23470;SDS011;11908;50.806;4.424;2023-07-09T04:12:42;7.55;;;4.68;;
23470;SDS011;11908;50.806;4.424;2023-07-09T04:15:07;9.43;;;4.72;;
23470;SDS011;11908;50.806;4.424;2023-07-09T04:17:34;9.70;;;4.60;;
23470;SDS011;11908;50.806;4.424;2023-07-09T04:20:00;5.78;;;4.82;;
23470;SDS011;11908;50.806;4.424;2023-07-09T04:22:30;10.48;;;5.38;;
23470;SDS011;11908;50.806;4.424;2023-07-09T04:24:57;8.48;;;4.70;;
23470;SDS011;11908;50.806;4.424;2023-07-09T04:27:23;8.88;;;4.43;;
23470;SDS011;11908;50.806;4.424;2023-07-09T04:29:52;8.07;;;5.03;;
23470;SDS011;11908;50.806;4.424;2023-07-09T04:32:18;7.78;;;4.75;;
23470;SDS011;11908;50.806;4.424;2023-07-09T04:34:44;11.75;;;4.82;;
23470;SDS011;11908;50.806;4.424;2023-07-09T04:37:10;6.97;;;4.65;;
23470;SDS011;11908;50.806;4.424;2023-07-09T04:39:37;9.13;;;4.90;;
23470;SDS011;11908;50.806;4.424;2023-07-09T04:42:04;7.30;;;4.45;;
23470;SDS011;11908;50.806;4.424;2023-07-09T04:44:31;7.75;;;4.72;;
23470;SDS011;11908;50.806;4.424;2023-07-09T04:46:56;8.32;;;4.97;;
23470;SDS011;11908;50.806;4.424;2023-07-09T04:49:22;6.85;;;4.40;;
23470;SDS011;11908;50.806;4.424;2023-07-09T04:51:48;6.90;;;4.45;;
23470;SDS011;11908;50.806;4.424;2023-07-09T04:54:13;8.40;;;4.05;;
23470;SDS011;11908;50.806;4.424;2023-07-09T04:56:40;9.38;;;4.38;;
23470;SDS011;11908;50.806;4.424;2023-07-09T04:59:09;9.93;;;4.93;;
23470;SDS011;11908;50.806;4.424;2023-07-09T05:01:38;7.97;;;3.95;;
23470;SDS011;11908;50.806;4.424;2023-07-09T05:04:03;9.80;;;4.38;;
23470;SDS011;11908;50.806;4.424;2023-07-09T05:06:29;11.10;;;4.63;;
23470;SDS011;11908;50.806;4.424;2023-07-09T05:08:55;8.50;;;4.25;;
23470;SDS011;11908;50.806;4.424;2023-07-09T05:11:21;8.73;;;4.30;;
23470;SDS011;11908;50.806;4.424;2023-07-09T05:13:46;10.70;;;4.30;;
23470;SDS011;11908;50.806;4.424;2023-07-09T05:16:12;6.72;;;4.68;;
23470;SDS011;11908;50.806;4.424;2023-07-09T05:18:38;6.43;;;4.13;;
23470;SDS011;11908;50.806;4.424;2023-07-09T05:21:04;7.50;;;4.32;;
23470;SDS011;11908;50.806;4.424;2023-07-09T05:23:29;14.02;;;5.18;;
23470;SDS011;11908;50.806;4.424;2023-07-09T05:25:56;7.32;;;4.72;;
23470;SDS011;11908;50.806;4.424;2023-07-09T05:28:25;10.05;;;3.95;;
23470;SDS011;11908;50.806;4.424;2023-07-09T05:30:52;9.20;;;3.97;;
23470;SDS011;11908;50.806;4.424;2023-07-09T05:33:17;6.45;;;3.67;;
23470;SDS011;11908;50.806;4.424;2023-07-09T05:35:44;14.80;;;4.03;;
23470;SDS011;11908;50.806;4.424;2023-07-09T05:38:10;7.80;;;3.88;;
23470;SDS011;11908;50.806;4.424;2023-07-09T05:40:37;7.93;;;4.47;;
23470;SDS011;11908;50.806;4.424;2023-07-09T05:43:03;6.75;;;3.78;;
23470;SDS011;11908;50.806;4.424;2023-07-09T05:45:28;10.32;;;4.13;;
23470;SDS011;11908;50.806;4.424;2023-07-09T05:47:55;8.20;;;4.25;;
23470;SDS011;11908;50.806;4.424;2023-07-09T05:50:20;9.38;;;3.80;;
23470;SDS011;11908;50.806;4.424;2023-07-09T05:52:46;8.63;;;3.60;;
23470;SDS011;11908;50.806;4.424;2023-07-09T05:55:12;10.57;;;3.75;;
23470;SDS011;11908;50.806;4.424;2023-07-09T05:57:38;6.07;;;3.47;;
23470;SDS011;11908;50.806;4.424;2023-07-09T06:00:04;10.32;;;3.78;;
23470;SDS011;11908;50.806;4.424;2023-07-09T06:02:30;7.65;;;3.80;;
23470;SDS011;11908;50.806;4.424;2023-07-09T06:04:56;7.72;;;3.35;;
23470;SDS011;11908;50.806;4.424;2023-07-09T06:07:23;7.38;;;3.60;;
23470;SDS011;11908;50.806;4.424;2023-07-09T06:09:49;8.70;;;3.60;;
23470;SDS011;11908;50.806;4.424;2023-07-09T06:12:15;9.00;;;3.95;;
23470;SDS011;11908;50.806;4.424;2023-07-09T06:14:40;5.00;;;3.13;;
23470;SDS011;11908;50.806;4.424;2023-07-09T06:17:07;9.55;;;3.72;;
23470;SDS011;11908;50.806;4.424;2023-07-09T06:19:33;10.25;;;3.72;;
23470;SDS011;11908;50.806;4.424;2023-07-09T06:21:58;6.53;;;3.70;;
23470;SDS011;11908;50.806;4.424;2023-07-09T06:24:24;16.42;;;4.32;;
23470;SDS011;11908;50.806;4.424;2023-07-09T06:26:50;9.25;;;3.63;;
23470;SDS011;11908;50.806;4.424;2023-07-09T06:29:15;9.70;;;3.80;;
23470;SDS011;11908;50.806;4.424;2023-07-09T06:31:41;11.80;;;4.03;;
23470;SDS011;11908;50.806;4.424;2023-07-09T06:34:08;5.47;;;3.47;;
23470;SDS011;11908;50.806;4.424;2023-07-09T06:36:34;6.93;;;3.47;;
23470;SDS011;11908;50.806;4.424;2023-07-09T06:39:00;9.20;;;3.13;;
23470;SDS011;11908;50.806;4.424;2023-07-09T06:41:26;7.63;;;3.70;;
23470;SDS011;11908;50.806;4.424;2023-07-09T06:43:52;11.60;;;4.00;;
23470;SDS011;11908;50.806;4.424;2023-07-09T06:46:18;6.95;;;4.18;;
23470;SDS011;11908;50.806;4.424;2023-07-09T06:48:44;13.43;;;3.60;;
23470;SDS011;11908;50.806;4.424;2023-07-09T06:51:10;10.55;;;3.92;;
23470;SDS011;11908;50.806;4.424;2023-07-09T06:53:36;8.23;;;3.83;;
23470;SDS011;11908;50.806;4.424;2023-07-09T06:56:02;12.55;;;3.95;;
23470;SDS011;11908;50.806;4.424;2023-07-09T06:58:28;10.63;;;3.95;;
23470;SDS011;11908;50.806;4.424;2023-07-09T07:01:00;10.88;;;3.60;;
23470;SDS011;11908;50.806;4.424;2023-07-09T07:03:28;6.03;;;3.50;;
23470;SDS011;11908;50.806;4.424;2023-07-09T07:05:54;11.35;;;4.07;;
23470;SDS011;11908;50.806;4.424;2023-07-09T07:08:21;7.22;;;3.35;;
23470;SDS011;11908;50.806;4.424;2023-07-09T07:10:54;6.72;;;3.75;;
23470;SDS011;11908;50.806;4.424;2023-07-09T07:13:30;10.45;;;4.38;;
23470;SDS011;11908;50.806;4.424;2023-07-09T07:15:57;10.85;;;4.30;;
23470;SDS011;11908;50.806;4.424;2023-07-09T07:18:23;8.23;;;4.05;;
23470;SDS011;11908;50.806;4.424;2023-07-09T07:20:49;6.72;;;3.88;;
23470;SDS011;11908;50.806;4.424;2023-07-09T07:23:16;8.27;;;4.72;;
23470;SDS011;11908;50.806;4.424;2023-07-09T07:25:41;9.57;;;4.75;;
23470;SDS011;11908;50.806;4.424;2023-07-09T07:28:07;8.82;;;5.38;;
23470;SDS011;11908;50.806;4.424;2023-07-09T07:30:33;9.07;;;5.25;;
23470;SDS011;11908;50.806;4.424;2023-07-09T07:32:59;12.70;;;5.90;;
23470;SDS011;11908;50.806;4.424;2023-07-09T07:35:24;10.50;;;6.18;;
23470;SDS011;11908;50.806;4.424;2023-07-09T07:37:50;7.97;;;5.75;;
23470;SDS011;11908;50.806;4.424;2023-07-09T07:40:15;9.60;;;5.97;;
23470;SDS011;11908;50.806;4.424;2023-07-09T07:42:41;13.35;;;6.55;;
23470;SDS011;11908;50.806;4.424;2023-07-09T07:45:07;9.60;;;6.70;;
23470;SDS011;11908;50.806;4.424;2023-07-09T07:47:33;14.93;;;8.68;;
23470;SDS011;11908;50.806;4.424;2023-07-09T07:49:59;14.15;;;7.93;;
23470;SDS011;11908;50.806;4.424;2023-07-09T07:52:25;15.88;;;8.95;;
23470;SDS011;11908;50.806;4.424;2023-07-09T07:54:51;16.30;;;9.25;;
23470;SDS011;11908;50.806;4.424;2023-07-09T07:57:17;11.65;;;8.80;;
23470;SDS011;11908;50.806;4.424;2023-07-09T07:59:43;20.17;;;11.70;;
23470;SDS011;11908;50.806;4.424;2023-07-09T08:02:11;18.42;;;12.93;;
23470;SDS011;11908;50.806;4.424;2023-07-09T08:04:39;20.17;;;12.10;;
23470;SDS011;11908;50.806;4.424;2023-07-09T08:07:06;21.27;;;14.00;;
23470;SDS011;11908;50.806;4.424;2023-07-09T08:09:33;19.83;;;13.02;;
23470;SDS011;11908;50.806;4.424;2023-07-09T08:12:00;23.25;;;14.02;;
23470;SDS011;11908;50.806;4.424;2023-07-09T08:14:26;19.40;;;11.15;;
23470;SDS011;11908;50.806;4.424;2023-07-09T08:16:52;18.63;;;12.15;;
23470;SDS011;11908;50.806;4.424;2023-07-09T08:19:18;22.75;;;15.88;;
23470;SDS011;11908;50.806;4.424;2023-07-09T08:21:44;23.70;;;14.27;;
23470;SDS011;11908;50.806;4.424;2023-07-09T08:24:10;17.35;;;13.23;;
23470;SDS011;11908;50.806;4.424;2023-07-09T08:26:37;21.63;;;15.63;;
23470;SDS011;11908;50.806;4.424;2023-07-09T08:29:03;22.95;;;18.20;;
23470;SDS011;11908;50.806;4.424;2023-07-09T08:31:30;21.10;;;15.07;;
23470;SDS011;11908;50.806;4.424;2023-07-09T08:33:56;25.98;;;14.10;;
23470;SDS011;11908;50.806;4.424;2023-07-09T08:36:21;19.45;;;13.35;;
23470;SDS011;11908;50.806;4.424;2023-07-09T08:38:49;19.00;;;14.20;;
23470;SDS011;11908;50.806;4.424;2023-07-09T08:41:20;17.98;;;14.23;;
23470;SDS011;11908;50.806;4.424;2023-07-09T08:46:59;22.13;;;13.35;;
23470;SDS011;11908;50.806;4.424;2023-07-09T08:49:45;20.60;;;14.45;;
23470;SDS011;11908;50.806;4.424;2023-07-09T08:52:36;17.20;;;11.68;;
23470;SDS011;11908;50.806;4.424;2023-07-09T08:55:06;17.92;;;14.60;;
23470;SDS011;11908;50.806;4.424;2023-07-09T08:57:40;19.65;;;12.90;;
23470;SDS011;11908;50.806;4.424;2023-07-09T09:00:31;18.40;;;13.52;;
23470;SDS011;11908;50.806;4.424;2023-07-09T09:05:30;20.52;;;12.80;;
23470;SDS011;11908;50.806;4.424;2023-07-09T09:08:03;17.00;;;13.15;;
23470;SDS011;11908;50.806;4.424;2023-07-09T09:13:12;17.17;;;12.70;;
23470;SDS011;11908;50.806;4.424;2023-07-09T09:15:44;18.63;;;11.75;;
23470;SDS011;11908;50.806;4.424;2023-07-09T09:20:47;18.65;;;13.00;;
23470;SDS011;11908;50.806;4.424;2023-07-09T09:23:22;19.65;;;11.95;;
23470;SDS011;11908;50.806;4.424;2023-07-09T09:25:55;18.50;;;11.70;;
23470;SDS011;11908;50.806;4.424;2023-07-09T09:28:26;20.27;;;10.43;;
23470;SDS011;11908;50.806;4.424;2023-07-09T09:30:52;24.58;;;12.32;;
23470;SDS011;11908;50.806;4.424;2023-07-09T09:33:18;16.95;;;11.95;;
23470;SDS011;11908;50.806;4.424;2023-07-09T09:35:44;15.57;;;9.60;;
23470;SDS011;11908;50.806;4.424;2023-07-09T09:38:19;16.65;;;10.35;;
23470;SDS011;11908;50.806;4.424;2023-07-09T09:40:46;14.63;;;9.45;;
23470;SDS011;11908;50.806;4.424;2023-07-09T09:43:13;19.13;;;10.52;;
23470;SDS011;11908;50.806;4.424;2023-07-09T09:45:43;14.45;;;9.23;;
23470;SDS011;11908;50.806;4.424;2023-07-09T09:48:20;15.65;;;9.65;;
23470;SDS011;11908;50.806;4.424;2023-07-09T09:53:24;14.57;;;10.30;;
23470;SDS011;11908;50.806;4.424;2023-07-09T09:55:54;16.25;;;9.23;;
23470;SDS011;11908;50.806;4.424;2023-07-09T09:58:25;17.70;;;9.70;;
23470;SDS011;11908;50.806;4.424;2023-07-09T10:00:55;13.68;;;8.77;;
23470;SDS011;11908;50.806;4.424;2023-07-09T10:03:31;17.75;;;11.35;;
23470;SDS011;11908;50.806;4.424;2023-07-09T10:06:13;16.27;;;9.05;;
23470;SDS011;11908;50.806;4.424;2023-07-09T10:16:57;19.88;;;13.77;;
23470;SDS011;11908;50.806;4.424;2023-07-09T10:19:35;18.35;;;12.38;;
23470;SDS011;11908;50.806;4.424;2023-07-09T10:22:28;20.60;;;12.10;;
23470;SDS011;11908;50.806;4.424;2023-07-09T10:30:49;19.17;;;13.30;;
23470;SDS011;11908;50.806;4.424;2023-07-09T10:36:23;20.60;;;11.27;;
23470;SDS011;11908;50.806;4.424;2023-07-09T10:39:05;17.43;;;11.43;;
23470;SDS011;11908;50.806;4.424;2023-07-09T10:41:43;15.32;;;10.40;;
23470;SDS011;11908;50.806;4.424;2023-07-09T10:44:12;18.52;;;12.00;;
23470;SDS011;11908;50.806;4.424;2023-07-09T10:46:40;17.23;;;10.65;;
23470;SDS011;11908;50.806;4.424;2023-07-09T10:49:11;14.93;;;11.73;;
23470;SDS011;11908;50.806;4.424;2023-07-09T10:51:40;15.95;;;11.07;;
23470;SDS011;11908;50.806;4.424;2023-07-09T10:57:10;17.92;;;11.05;;
23470;SDS011;11908;50.806;4.424;2023-07-09T10:59:55;14.98;;;9.77;;
23470;SDS011;11908;50.806;4.424;2023-07-09T11:02:33;14.32;;;9.27;;
23470;SDS011;11908;50.806;4.424;2023-07-09T11:05:05;17.00;;;10.13;;
23470;SDS011;11908;50.806;4.424;2023-07-09T11:07:45;15.60;;;9.85;;
23470;SDS011;11908;50.806;4.424;2023-07-09T11:13:10;18.80;;;11.47;;
23470;SDS011;11908;50.806;4.424;2023-07-09T11:15:44;14.55;;;10.52;;
23470;SDS011;11908;50.806;4.424;2023-07-09T11:18:14;15.93;;;10.55;;
23470;SDS011;11908;50.806;4.424;2023-07-09T11:20:45;16.77;;;10.60;;
23470;SDS011;11908;50.806;4.424;2023-07-09T11:23:19;15.18;;;9.70;;
23470;SDS011;11908;50.806;4.424;2023-07-09T11:25:48;17.42;;;10.48;;
23470;SDS011;11908;50.806;4.424;2023-07-09T11:28:32;11.30;;;8.63;;
23470;SDS011;11908;50.806;4.424;2023-07-09T11:31:22;13.07;;;8.32;;
23470;SDS011;11908;50.806;4.424;2023-07-09T11:33:58;13.18;;;6.15;;
23470;SDS011;11908;50.806;4.424;2023-07-09T11:36:34;10.10;;;5.50;;
23470;SDS011;11908;50.806;4.424;2023-07-09T11:39:20;7.40;;;5.13;;
23470;SDS011;11908;50.806;4.424;2023-07-09T11:41:52;11.55;;;4.80;;
23470;SDS011;11908;50.806;4.424;2023-07-09T11:44:19;8.02;;;5.13;;
23470;SDS011;11908;50.806;4.424;2023-07-09T11:49:27;7.90;;;5.07;;
23470;SDS011;11908;50.806;4.424;2023-07-09T11:52:02;11.40;;;4.70;;
23470;SDS011;11908;50.806;4.424;2023-07-09T11:54:33;9.30;;;4.63;;
23470;SDS011;11908;50.806;4.424;2023-07-09T11:57:00;11.73;;;4.90;;
23470;SDS011;11908;50.806;4.424;2023-07-09T11:59:28;9.77;;;4.38;;
23470;SDS011;11908;50.806;4.424;2023-07-09T12:01:54;13.55;;;4.80;;
23470;SDS011;11908;50.806;4.424;2023-07-09T12:04:26;12.48;;;4.55;;
23470;SDS011;11908;50.806;4.424;2023-07-09T12:06:57;6.95;;;4.07;;
23470;SDS011;11908;50.806;4.424;2023-07-09T12:09:29;6.32;;;4.72;;
23470;SDS011;11908;50.806;4.424;2023-07-09T12:11:57;7.85;;;4.45;;
23470;SDS011;11908;50.806;4.424;2023-07-09T12:14:23;9.80;;;4.60;;
23470;SDS011;11908;50.806;4.424;2023-07-09T12:16:50;7.05;;;4.30;;
23470;SDS011;11908;50.806;4.424;2023-07-09T12:19:21;13.38;;;5.07;;
23470;SDS011;11908;50.806;4.424;2023-07-09T12:21:48;13.45;;;5.00;;
23470;SDS011;11908;50.806;4.424;2023-07-09T12:26:52;15.80;;;7.53;;
23470;SDS011;11908;50.806;4.424;2023-07-09T12:29:18;11.80;;;7.65;;
23470;SDS011;11908;50.806;4.424;2023-07-09T12:31:43;15.65;;;8.00;;
23470;SDS011;11908;50.806;4.424;2023-07-09T12:34:11;13.32;;;7.68;;
23470;SDS011;11908;50.806;4.424;2023-07-09T12:36:41;16.80;;;9.20;;
23470;SDS011;11908;50.806;4.424;2023-07-09T12:39:11;15.68;;;9.40;;
23470;SDS011;11908;50.806;4.424;2023-07-09T12:41:40;20.95;;;9.32;;
23470;SDS011;11908;50.806;4.424;2023-07-09T12:44:20;15.15;;;9.18;;
23470;SDS011;11908;50.806;4.424;2023-07-09T12:46:48;13.55;;;9.13;;
23470;SDS011;11908;50.806;4.424;2023-07-09T12:49:37;14.82;;;9.27;;
23470;SDS011;11908;50.806;4.424;2023-07-09T12:52:16;17.55;;;9.43;;
23470;SDS011;11908;50.806;4.424;2023-07-09T12:54:51;12.95;;;8.60;;
23470;SDS011;11908;50.806;4.424;2023-07-09T12:57:20;15.23;;;9.43;;
23470;SDS011;11908;50.806;4.424;2023-07-09T12:59:46;15.43;;;9.80;;
23470;SDS011;11908;50.806;4.424;2023-07-09T13:02:23;17.55;;;9.65;;
23470;SDS011;11908;50.806;4.424;2023-07-09T13:05:01;15.68;;;9.80;;
23470;SDS011;11908;50.806;4.424;2023-07-09T13:07:31;18.52;;;9.70;;
23470;SDS011;11908;50.806;4.424;2023-07-09T13:10:04;15.10;;;9.35;;
23470;SDS011;11908;50.806;4.424;2023-07-09T13:12:41;14.98;;;9.45;;
23470;SDS011;11908;50.806;4.424;2023-07-09T13:17:57;15.13;;;9.55;;
23470;SDS011;11908;50.806;4.424;2023-07-09T13:20:25;14.82;;;8.73;;
23470;SDS011;11908;50.806;4.424;2023-07-09T13:22:51;18.98;;;10.93;;
23470;SDS011;11908;50.806;4.424;2023-07-09T13:25:16;14.32;;;9.73;;
23470;SDS011;11908;50.806;4.424;2023-07-09T13:27:42;15.18;;;9.38;;
23470;SDS011;11908;50.806;4.424;2023-07-09T13:30:09;13.07;;;9.23;;
23470;SDS011;11908;50.806;4.424;2023-07-09T13:32:35;15.50;;;9.82;;
23470;SDS011;11908;50.806;4.424;2023-07-09T13:35:01;13.80;;;9.23;;
23470;SDS011;11908;50.806;4.424;2023-07-09T13:37:28;17.52;;;9.10;;
23470;SDS011;11908;50.806;4.424;2023-07-09T13:39:54;17.83;;;9.52;;
23470;SDS011;11908;50.806;4.424;2023-07-09T13:42:20;15.80;;;9.70;;
23470;SDS011;11908;50.806;4.424;2023-07-09T13:44:46;15.50;;;9.63;;
23470;SDS011;11908;50.806;4.424;2023-07-09T13:47:17;13.80;;;9.18;;
23470;SDS011;11908;50.806;4.424;2023-07-09T13:49:44;11.73;;;9.05;;
23470;SDS011;11908;50.806;4.424;2023-07-09T13:52:15;15.13;;;8.90;;
23470;SDS011;11908;50.806;4.424;2023-07-09T13:54:43;17.60;;;9.38;;
23470;SDS011;11908;50.806;4.424;2023-07-09T13:57:13;12.13;;;8.10;;
23470;SDS011;11908;50.806;4.424;2023-07-09T13:59:44;13.70;;;7.95;;
23470;SDS011;11908;50.806;4.424;2023-07-09T14:02:29;15.13;;;8.43;;
23470;SDS011;11908;50.806;4.424;2023-07-09T14:04:57;14.25;;;8.55;;
23470;SDS011;11908;50.806;4.424;2023-07-09T14:07:25;13.27;;;7.75;;
23470;SDS011;11908;50.806;4.424;2023-07-09T14:09:51;11.88;;;8.00;;
23470;SDS011;11908;50.806;4.424;2023-07-09T14:12:16;15.18;;;8.70;;
23470;SDS011;11908;50.806;4.424;2023-07-09T14:14:42;12.75;;;8.10;;
23470;SDS011;11908;50.806;4.424;2023-07-09T14:17:11;10.85;;;7.80;;
23470;SDS011;11908;50.806;4.424;2023-07-09T14:19:37;11.38;;;7.45;;
23470;SDS011;11908;50.806;4.424;2023-07-09T14:22:04;15.40;;;8.63;;
23470;SDS011;11908;50.806;4.424;2023-07-09T14:24:42;14.68;;;7.65;;
23470;SDS011;11908;50.806;4.424;2023-07-09T14:27:08;11.23;;;7.47;;
23470;SDS011;11908;50.806;4.424;2023-07-09T14:29:35;10.95;;;7.97;;
23470;SDS011;11908;50.806;4.424;2023-07-09T14:32:00;12.50;;;7.80;;
23470;SDS011;11908;50.806;4.424;2023-07-09T14:34:27;10.43;;;6.72;;
23470;SDS011;11908;50.806;4.424;2023-07-09T14:36:56;10.23;;;6.53;;
23470;SDS011;11908;50.806;4.424;2023-07-09T14:39:23;12.75;;;7.63;;
23470;SDS011;11908;50.806;4.424;2023-07-09T14:41:50;12.80;;;9.02;;
23470;SDS011;11908;50.806;4.424;2023-07-09T14:44:24;13.00;;;8.00;;
23470;SDS011;11908;50.806;4.424;2023-07-09T14:46:55;15.90;;;7.45;;
23470;SDS011;11908;50.806;4.424;2023-07-09T14:49:22;13.95;;;7.57;;
23470;SDS011;11908;50.806;4.424;2023-07-09T14:51:48;12.13;;;6.50;;
23470;SDS011;11908;50.806;4.424;2023-07-09T14:54:23;9.60;;;6.85;;
23470;SDS011;11908;50.806;4.424;2023-07-09T14:56:51;14.15;;;7.20;;
23470;SDS011;11908;50.806;4.424;2023-07-09T14:59:17;13.68;;;7.47;;
23470;SDS011;11908;50.806;4.424;2023-07-09T15:01:43;12.32;;;6.70;;
23470;SDS011;11908;50.806;4.424;2023-07-09T15:04:31;11.10;;;6.43;;
23470;SDS011;11908;50.806;4.424;2023-07-09T15:06:58;12.88;;;6.53;;
23470;SDS011;11908;50.806;4.424;2023-07-09T15:09:26;13.00;;;7.28;;
23470;SDS011;11908;50.806;4.424;2023-07-09T15:11:53;13.60;;;7.40;;
23470;SDS011;11908;50.806;4.424;2023-07-09T15:14:20;13.23;;;7.00;;
23470;SDS011;11908;50.806;4.424;2023-07-09T15:16:47;10.82;;;6.45;;
23470;SDS011;11908;50.806;4.424;2023-07-09T15:19:15;12.45;;;6.88;;
23470;SDS011;11908;50.806;4.424;2023-07-09T15:21:42;12.77;;;7.15;;
23470;SDS011;11908;50.806;4.424;2023-07-09T15:24:11;14.57;;;6.65;;
23470;SDS011;11908;50.806;4.424;2023-07-09T15:27:00;11.68;;;7.07;;
23470;SDS011;11908;50.806;4.424;2023-07-09T15:29:29;9.48;;;5.93;;
23470;SDS011;11908;50.806;4.424;2023-07-09T15:31:55;9.88;;;5.93;;
23470;SDS011;11908;50.806;4.424;2023-07-09T15:34:21;13.02;;;6.80;;
23470;SDS011;11908;50.806;4.424;2023-07-09T15:36:49;10.93;;;6.43;;